sensor_id;sensor_type;location;lat;lon;timestamp;pressure;altitude;pressure_sealevel;temperature;humidity
39555;BME280;25231;48.746;9.234;2023-03-15T00:00:41;96252.53;;;0.69;100.00
39555;BME280;25231;48.746;9.234;2023-03-15T00:03:09;96263.75;;;0.76;100.00
39555;BME280;25231;48.746;9.234;2023-03-15T00:05:35;96267.91;;;0.63;100.00
39555;BME280;25231;48.746;9.234;2023-03-15T00:08:01;96282.84;;;0.67;100.00
39555;BME280;25231;48.746;9.234;2023-03-15T00:10:27;96284.56;;;0.75;100.00
39555;BME280;25231;48.746;9.234;2023-03-15T00:12:53;96286.59;;;0.79;100.00
39555;BME280;25231;48.746;9.234;2023-03-15T00:15:20;96295.06;;;0.88;100.00
39555;BME280;25231;48.746;9.234;2023-03-15T00:17:45;96307.31;;;0.71;100.00
39555;BME280;25231;48.746;9.234;2023-03-15T00:20:12;96311.69;;;0.71;100.00
39555;BME280;25231;48.746;9.234;2023-03-15T00:22:39;96313.72;;;0.90;100.00
39555;BME280;25231;48.746;9.234;2023-03-15T00:25:05;96329.56;;;0.72;100.00
39555;BME280;25231;48.746;9.234;2023-03-15T00:27:31;96330.09;;;0.82;100.00
39555;BME280;25231;48.746;9.234;2023-03-15T00:29:56;96336.13;;;0.75;100.00
39555;BME280;25231;48.746;9.234;2023-03-15T00:32:21;96334.72;;;0.72;100.00
39555;BME280;25231;48.746;9.234;2023-03-15T00:34:47;96336.03;;;0.68;100.00
39555;BME280;25231;48.746;9.234;2023-03-15T00:37:16;96343.00;;;0.82;100.00
39555;BME280;25231;48.746;9.234;2023-03-15T00:42:51;96355.34;;;0.87;100.00
39555;BME280;25231;48.746;9.234;2023-03-15T00:45:22;96349.72;;;0.54;100.00
39555;BME280;25231;48.746;9.234;2023-03-15T00:47:51;96360.63;;;0.56;100.00
39555;BME280;25231;48.746;9.234;2023-03-15T00:50:17;96365.84;;;0.71;100.00
39555;BME280;25231;48.746;9.234;2023-03-15T00:52:43;96373.84;;;0.76;100.00
39555;BME280;25231;48.746;9.234;2023-03-15T00:55:13;96374.91;;;0.67;100.00
39555;BME280;25231;48.746;9.234;2023-03-15T00:57:40;96375.19;;;0.87;100.00
39555;BME280;25231;48.746;9.234;2023-03-15T01:00:11;96379.91;;;0.98;100.00
39555;BME280;25231;48.746;9.234;2023-03-15T01:02:38;96390.31;;;0.90;100.00
39555;BME280;25231;48.746;9.234;2023-03-15T01:05:05;96392.19;;;0.96;100.00
39555;BME280;25231;48.746;9.234;2023-03-15T01:07:31;96398.69;;;1.06;100.00
39555;BME280;25231;48.746;9.234;2023-03-15T01:10:01;96403.25;;;1.04;100.00
39555;BME280;25231;48.746;9.234;2023-03-15T01:12:27;96399.50;;;1.07;100.00
39555;BME280;25231;48.746;9.234;2023-03-15T01:14:54;96399.84;;;1.18;100.00
39555;BME280;25231;48.746;9.234;2023-03-15T01:17:20;96408.50;;;1.25;100.00
39555;BME280;25231;48.746;9.234;2023-03-15T01:19:45;96403.78;;;1.14;100.00
39555;BME280;25231;48.746;9.234;2023-03-15T01:22:11;96402.91;;;1.22;100.00
39555;BME280;25231;48.746;9.234;2023-03-15T01:24:36;96412.22;;;1.23;100.00
39555;BME280;25231;48.746;9.234;2023-03-15T01:27:02;96414.38;;;1.19;100.00
39555;BME280;25231;48.746;9.234;2023-03-15T01:29:27;96415.53;;;1.17;100.00
39555;BME280;25231;48.746;9.234;2023-03-15T01:31:53;96417.75;;;1.05;100.00
39555;BME280;25231;48.746;9.234;2023-03-15T01:34:18;96417.31;;;1.16;100.00
39555;BME280;25231;48.746;9.234;2023-03-15T01:36:44;96414.97;;;1.07;100.00
39555;BME280;25231;48.746;9.234;2023-03-15T01:39:09;96414.00;;;1.08;100.00
39555;BME280;25231;48.746;9.234;2023-03-15T01:41:36;96416.75;;;1.06;100.00
39555;BME280;25231;48.746;9.234;2023-03-15T01:44:01;96423.88;;;1.04;100.00
39555;BME280;25231;48.746;9.234;2023-03-15T01:46:31;96427.69;;;1.08;100.00
39555;BME280;25231;48.746;9.234;2023-03-15T01:49:10;96433.53;;;0.88;100.00
39555;BME280;25231;48.746;9.234;2023-03-15T01:51:44;96440.13;;;0.90;100.00
39555;BME280;25231;48.746;9.234;2023-03-15T01:56:52;96434.91;;;0.98;100.00
39555;BME280;25231;48.746;9.234;2023-03-15T01:59:24;96442.78;;;0.82;100.00
39555;BME280;25231;48.746;9.234;2023-03-15T02:01:53;96443.34;;;0.92;100.00
39555;BME280;25231;48.746;9.234;2023-03-15T02:04:24;96450.44;;;0.90;100.00
39555;BME280;25231;48.746;9.234;2023-03-15T02:06:55;96453.53;;;0.86;100.00
39555;BME280;25231;48.746;9.234;2023-03-15T02:09:43;96455.28;;;0.70;100.00
39555;BME280;25231;48.746;9.234;2023-03-15T02:12:11;96452.59;;;0.64;100.00
39555;BME280;25231;48.746;9.234;2023-03-15T02:14:37;96461.13;;;0.64;100.00
39555;BME280;25231;48.746;9.234;2023-03-15T02:17:03;96460.97;;;0.66;100.00
39555;BME280;25231;48.746;9.234;2023-03-15T02:22:30;96457.47;;;0.59;100.00
39555;BME280;25231;48.746;9.234;2023-03-15T02:25:15;96465.38;;;0.57;100.00
39555;BME280;25231;48.746;9.234;2023-03-15T02:27:45;96462.22;;;0.47;100.00
39555;BME280;25231;48.746;9.234;2023-03-15T02:30:11;96466.06;;;0.51;100.00
39555;BME280;25231;48.746;9.234;2023-03-15T02:32:36;96464.91;;;0.54;100.00
39555;BME280;25231;48.746;9.234;2023-03-15T02:35:02;96466.84;;;0.52;100.00
39555;BME280;25231;48.746;9.234;2023-03-15T02:37:27;96467.94;;;0.57;100.00
39555;BME280;25231;48.746;9.234;2023-03-15T02:39:53;96479.88;;;0.58;100.00
39555;BME280;25231;48.746;9.234;2023-03-15T02:42:18;96476.88;;;0.47;100.00
39555;BME280;25231;48.746;9.234;2023-03-15T02:44:45;96488.84;;;0.39;100.00
39555;BME280;25231;48.746;9.234;2023-03-15T02:47:18;96493.59;;;0.51;100.00
39555;BME280;25231;48.746;9.234;2023-03-15T02:49:49;96493.78;;;0.49;100.00
39555;BME280;25231;48.746;9.234;2023-03-15T02:52:15;96498.03;;;0.42;100.00
39555;BME280;25231;48.746;9.234;2023-03-15T02:54:40;96501.72;;;0.39;100.00
39555;BME280;25231;48.746;9.234;2023-03-15T02:57:10;96502.06;;;0.45;100.00
39555;BME280;25231;48.746;9.234;2023-03-15T02:59:36;96513.50;;;0.42;100.00
39555;BME280;25231;48.746;9.234;2023-03-15T03:02:02;96513.31;;;0.44;100.00
39555;BME280;25231;48.746;9.234;2023-03-15T03:04:28;96522.84;;;0.43;100.00
39555;BME280;25231;48.746;9.234;2023-03-15T03:06:53;96524.44;;;0.44;100.00
39555;BME280;25231;48.746;9.234;2023-03-15T03:09:22;96533.47;;;0.40;100.00
39555;BME280;25231;48.746;9.234;2023-03-15T03:11:48;96530.56;;;0.43;100.00
39555;BME280;25231;48.746;9.234;2023-03-15T03:14:13;96535.72;;;0.43;100.00
39555;BME280;25231;48.746;9.234;2023-03-15T03:16:40;96542.28;;;0.46;100.00
39555;BME280;25231;48.746;9.234;2023-03-15T03:19:07;96547.22;;;0.32;100.00
39555;BME280;25231;48.746;9.234;2023-03-15T03:21:33;96557.00;;;0.37;100.00
39555;BME280;25231;48.746;9.234;2023-03-15T03:23:58;96565.03;;;0.42;100.00
39555;BME280;25231;48.746;9.234;2023-03-15T03:26:24;96561.53;;;0.35;100.00
39555;BME280;25231;48.746;9.234;2023-03-15T03:28:53;96554.59;;;0.35;100.00
39555;BME280;25231;48.746;9.234;2023-03-15T03:31:22;96566.69;;;0.35;100.00
39555;BME280;25231;48.746;9.234;2023-03-15T03:33:48;96568.16;;;0.29;100.00
39555;BME280;25231;48.746;9.234;2023-03-15T03:36:14;96572.50;;;0.29;100.00
39555;BME280;25231;48.746;9.234;2023-03-15T03:38:40;96576.84;;;0.28;100.00
39555;BME280;25231;48.746;9.234;2023-03-15T03:41:07;96583.63;;;0.29;100.00
39555;BME280;25231;48.746;9.234;2023-03-15T03:43:32;96581.91;;;0.22;100.00
39555;BME280;25231;48.746;9.234;2023-03-15T03:45:58;96588.63;;;0.23;100.00
39555;BME280;25231;48.746;9.234;2023-03-15T03:48:23;96590.44;;;0.22;100.00
39555;BME280;25231;48.746;9.234;2023-03-15T03:50:48;96596.34;;;0.23;100.00
39555;BME280;25231;48.746;9.234;2023-03-15T03:53:14;96598.94;;;0.23;100.00
39555;BME280;25231;48.746;9.234;2023-03-15T03:55:39;96605.91;;;0.22;100.00
39555;BME280;25231;48.746;9.234;2023-03-15T03:58:07;96608.13;;;0.17;100.00
39555;BME280;25231;48.746;9.234;2023-03-15T04:00:32;96612.97;;;0.20;100.00
39555;BME280;25231;48.746;9.234;2023-03-15T04:02:58;96617.66;;;0.17;100.00
39555;BME280;25231;48.746;9.234;2023-03-15T04:05:23;96618.44;;;0.17;100.00
39555;BME280;25231;48.746;9.234;2023-03-15T04:07:48;96619.91;;;0.20;100.00
39555;BME280;25231;48.746;9.234;2023-03-15T04:10:14;96612.31;;;0.18;100.00
39555;BME280;25231;48.746;9.234;2023-03-15T04:12:41;96621.53;;;0.13;100.00
39555;BME280;25231;48.746;9.234;2023-03-15T04:15:07;96634.41;;;0.21;100.00
39555;BME280;25231;48.746;9.234;2023-03-15T04:17:33;96634.56;;;0.19;100.00
39555;BME280;25231;48.746;9.234;2023-03-15T04:19:58;96636.22;;;0.04;100.00
39555;BME280;25231;48.746;9.234;2023-03-15T04:22:26;96648.94;;;0.06;100.00
39555;BME280;25231;48.746;9.234;2023-03-15T04:24:51;96641.22;;;0.06;100.00
39555;BME280;25231;48.746;9.234;2023-03-15T04:27:17;96647.31;;;0.05;100.00
39555;BME280;25231;48.746;9.234;2023-03-15T04:29:42;96649.09;;;0.04;100.00
39555;BME280;25231;48.746;9.234;2023-03-15T04:32:09;96649.56;;;0.08;100.00
39555;BME280;25231;48.746;9.234;2023-03-15T04:34:34;96655.22;;;0.03;100.00
39555;BME280;25231;48.746;9.234;2023-03-15T04:37:04;96651.66;;;0.04;100.00
39555;BME280;25231;48.746;9.234;2023-03-15T04:39:30;96654.91;;;-0.10;100.00
39555;BME280;25231;48.746;9.234;2023-03-15T04:41:55;96653.63;;;-0.06;100.00
39555;BME280;25231;48.746;9.234;2023-03-15T04:44:21;96660.34;;;-0.05;100.00
39555;BME280;25231;48.746;9.234;2023-03-15T04:46:50;96667.63;;;-0.09;100.00
39555;BME280;25231;48.746;9.234;2023-03-15T04:49:16;96665.84;;;-0.08;100.00
39555;BME280;25231;48.746;9.234;2023-03-15T04:51:41;96673.09;;;-0.12;100.00
39555;BME280;25231;48.746;9.234;2023-03-15T04:54:07;96660.22;;;-0.12;100.00
39555;BME280;25231;48.746;9.234;2023-03-15T04:56:32;96674.88;;;-0.12;100.00
39555;BME280;25231;48.746;9.234;2023-03-15T04:58:57;96669.06;;;-0.14;100.00
39555;BME280;25231;48.746;9.234;2023-03-15T05:01:27;96669.88;;;-0.14;100.00
39555;BME280;25231;48.746;9.234;2023-03-15T05:03:54;96670.53;;;-0.20;100.00
39555;BME280;25231;48.746;9.234;2023-03-15T05:06:19;96657.00;;;-0.22;100.00
39555;BME280;25231;48.746;9.234;2023-03-15T05:08:45;96663.44;;;-0.18;100.00
39555;BME280;25231;48.746;9.234;2023-03-15T05:11:11;96662.31;;;-0.15;100.00
39555;BME280;25231;48.746;9.234;2023-03-15T05:13:36;96662.47;;;-0.09;100.00
39555;BME280;25231;48.746;9.234;2023-03-15T05:16:02;96662.16;;;-0.14;100.00
39555;BME280;25231;48.746;9.234;2023-03-15T05:18:28;96667.63;;;-0.17;100.00
39555;BME280;25231;48.746;9.234;2023-03-15T05:20:53;96660.53;;;-0.15;100.00
39555;BME280;25231;48.746;9.234;2023-03-15T05:23:22;96662.50;;;-0.25;100.00
39555;BME280;25231;48.746;9.234;2023-03-15T05:25:50;96663.91;;;-0.22;100.00
39555;BME280;25231;48.746;9.234;2023-03-15T05:28:18;96661.34;;;-0.22;100.00
39555;BME280;25231;48.746;9.234;2023-03-15T05:30:44;96666.19;;;-0.27;100.00
39555;BME280;25231;48.746;9.234;2023-03-15T05:33:09;96666.03;;;-0.26;100.00
39555;BME280;25231;48.746;9.234;2023-03-15T05:35:35;96667.47;;;-0.23;100.00
39555;BME280;25231;48.746;9.234;2023-03-15T05:38:00;96665.84;;;-0.16;100.00
39555;BME280;25231;48.746;9.234;2023-03-15T05:40:27;96667.63;;;-0.17;100.00
39555;BME280;25231;48.746;9.234;2023-03-15T05:42:54;96667.94;;;-0.20;100.00
39555;BME280;25231;48.746;9.234;2023-03-15T05:45:20;96672.13;;;-0.11;100.00
39555;BME280;25231;48.746;9.234;2023-03-15T05:47:46;96671.50;;;-0.13;100.00
39555;BME280;25231;48.746;9.234;2023-03-15T05:50:12;96677.75;;;0.01;100.00
39555;BME280;25231;48.746;9.234;2023-03-15T05:52:37;96680.16;;;0.03;100.00
39555;BME280;25231;48.746;9.234;2023-03-15T05:55:02;96680.47;;;0.08;100.00
39555;BME280;25231;48.746;9.234;2023-03-15T05:57:28;96690.94;;;0.22;100.00
39555;BME280;25231;48.746;9.234;2023-03-15T05:59:54;96686.41;;;0.32;100.00
39555;BME280;25231;48.746;9.234;2023-03-15T06:02:20;96691.19;;;0.44;100.00
39555;BME280;25231;48.746;9.234;2023-03-15T06:04:45;96693.06;;;0.58;100.00
39555;BME280;25231;48.746;9.234;2023-03-15T06:07:11;96687.84;;;0.74;100.00
39555;BME280;25231;48.746;9.234;2023-03-15T06:09:36;96688.94;;;0.88;100.00
39555;BME280;25231;48.746;9.234;2023-03-15T06:12:02;96689.88;;;0.95;100.00
39555;BME280;25231;48.746;9.234;2023-03-15T06:14:28;96695.13;;;1.01;100.00
39555;BME280;25231;48.746;9.234;2023-03-15T06:16:54;96694.72;;;1.20;100.00
39555;BME280;25231;48.746;9.234;2023-03-15T06:19:21;96695.66;;;1.28;100.00
39555;BME280;25231;48.746;9.234;2023-03-15T06:21:47;96697.56;;;1.34;100.00
39555;BME280;25231;48.746;9.234;2023-03-15T06:24:12;96697.94;;;1.45;100.00
39555;BME280;25231;48.746;9.234;2023-03-15T06:26:38;96704.81;;;1.61;100.00
39555;BME280;25231;48.746;9.234;2023-03-15T06:29:03;96705.78;;;1.60;100.00
39555;BME280;25231;48.746;9.234;2023-03-15T06:31:29;96704.84;;;1.53;100.00
39555;BME280;25231;48.746;9.234;2023-03-15T06:33:54;96711.09;;;1.58;100.00
39555;BME280;25231;48.746;9.234;2023-03-15T06:36:20;96719.53;;;1.75;100.00
39555;BME280;25231;48.746;9.234;2023-03-15T06:38:45;96717.59;;;1.77;100.00
39555;BME280;25231;48.746;9.234;2023-03-15T06:41:11;96723.44;;;1.94;100.00
39555;BME280;25231;48.746;9.234;2023-03-15T06:43:36;96731.09;;;2.02;100.00
39555;BME280;25231;48.746;9.234;2023-03-15T06:46:02;96720.97;;;2.00;100.00
39555;BME280;25231;48.746;9.234;2023-03-15T06:48:28;96727.41;;;2.19;100.00
39555;BME280;25231;48.746;9.234;2023-03-15T06:50:53;96726.97;;;2.30;100.00
39555;BME280;25231;48.746;9.234;2023-03-15T06:53:19;96723.16;;;2.26;100.00
39555;BME280;25231;48.746;9.234;2023-03-15T06:55:45;96728.75;;;2.30;100.00
39555;BME280;25231;48.746;9.234;2023-03-15T06:58:12;96728.53;;;2.39;100.00
39555;BME280;25231;48.746;9.234;2023-03-15T07:00:37;96738.22;;;2.23;100.00
39555;BME280;25231;48.746;9.234;2023-03-15T07:03:03;96726.38;;;2.43;100.00
39555;BME280;25231;48.746;9.234;2023-03-15T07:05:29;96724.41;;;2.74;100.00
39555;BME280;25231;48.746;9.234;2023-03-15T07:07:54;96722.00;;;2.87;100.00
39555;BME280;25231;48.746;9.234;2023-03-15T07:10:20;96726.75;;;2.84;99.42
39555;BME280;25231;48.746;9.234;2023-03-15T07:12:45;96731.47;;;2.80;98.54
39555;BME280;25231;48.746;9.234;2023-03-15T07:15:11;96735.31;;;2.99;97.17
39555;BME280;25231;48.746;9.234;2023-03-15T07:17:37;96733.69;;;2.98;96.33
39555;BME280;25231;48.746;9.234;2023-03-15T07:20:03;96737.09;;;2.99;96.27
39555;BME280;25231;48.746;9.234;2023-03-15T07:22:31;96736.97;;;3.07;96.34
39555;BME280;25231;48.746;9.234;2023-03-15T07:24:56;96745.81;;;2.98;95.66
39555;BME280;25231;48.746;9.234;2023-03-15T07:27:21;96741.53;;;3.05;94.86
39555;BME280;25231;48.746;9.234;2023-03-15T07:29:47;96736.72;;;2.87;94.32
39555;BME280;25231;48.746;9.234;2023-03-15T07:32:12;96744.31;;;2.88;94.86
39555;BME280;25231;48.746;9.234;2023-03-15T07:34:38;96758.59;;;2.84;94.84
39555;BME280;25231;48.746;9.234;2023-03-15T07:37:03;96762.09;;;3.06;95.45
39555;BME280;25231;48.746;9.234;2023-03-15T07:39:29;96768.13;;;3.13;93.17
39555;BME280;25231;48.746;9.234;2023-03-15T07:41:57;96770.25;;;3.24;93.21
39555;BME280;25231;48.746;9.234;2023-03-15T07:44:24;96767.84;;;3.38;92.28
39555;BME280;25231;48.746;9.234;2023-03-15T07:46:49;96768.81;;;3.37;92.15
39555;BME280;25231;48.746;9.234;2023-03-15T07:49:15;96774.53;;;3.32;93.53
39555;BME280;25231;48.746;9.234;2023-03-15T07:51:40;96776.78;;;3.20;92.64
39555;BME280;25231;48.746;9.234;2023-03-15T07:54:07;96771.16;;;3.31;93.03
39555;BME280;25231;48.746;9.234;2023-03-15T07:56:33;96775.06;;;3.42;94.39
39555;BME280;25231;48.746;9.234;2023-03-15T07:58:58;96776.38;;;3.53;92.77
39555;BME280;25231;48.746;9.234;2023-03-15T08:01:24;96771.56;;;3.50;93.02
39555;BME280;25231;48.746;9.234;2023-03-15T08:03:50;96768.53;;;3.46;92.14
39555;BME280;25231;48.746;9.234;2023-03-15T08:06:15;96770.28;;;3.60;91.00
39555;BME280;25231;48.746;9.234;2023-03-15T08:08:41;96761.03;;;3.72;90.03
39555;BME280;25231;48.746;9.234;2023-03-15T08:11:06;96769.50;;;3.81;88.88
39555;BME280;25231;48.746;9.234;2023-03-15T08:13:32;96761.59;;;6.09;100.00
39555;BME280;25231;48.746;9.234;2023-03-15T08:15:58;96767.53;;;5.22;85.38
39555;BME280;25231;48.746;9.234;2023-03-15T08:18:23;96772.19;;;4.37;86.85
39555;BME280;25231;48.746;9.234;2023-03-15T08:20:49;96772.97;;;4.09;88.52
39555;BME280;25231;48.746;9.234;2023-03-15T08:23:15;96775.13;;;4.06;89.61
39555;BME280;25231;48.746;9.234;2023-03-15T08:25:42;96779.75;;;4.10;89.03
39555;BME280;25231;48.746;9.234;2023-03-15T08:28:08;96773.88;;;4.02;90.35
39555;BME280;25231;48.746;9.234;2023-03-15T08:30:34;96774.25;;;3.99;90.01
39555;BME280;25231;48.746;9.234;2023-03-15T08:32:59;96770.63;;;3.93;91.00
39555;BME280;25231;48.746;9.234;2023-03-15T08:35:26;96767.03;;;4.15;90.42
39555;BME280;25231;48.746;9.234;2023-03-15T08:37:51;96771.16;;;4.10;90.16
39555;BME280;25231;48.746;9.234;2023-03-15T08:40:19;96780.25;;;3.99;88.26
39555;BME280;25231;48.746;9.234;2023-03-15T08:42:51;96777.31;;;4.30;88.19
39555;BME280;25231;48.746;9.234;2023-03-15T08:45:18;96781.69;;;4.30;87.71
39555;BME280;25231;48.746;9.234;2023-03-15T08:47:44;96781.19;;;4.41;87.16
39555;BME280;25231;48.746;9.234;2023-03-15T08:50:11;96775.97;;;4.62;85.34
39555;BME280;25231;48.746;9.234;2023-03-15T08:52:38;96785.34;;;4.91;82.96
39555;BME280;25231;48.746;9.234;2023-03-15T08:55:04;96786.50;;;5.16;80.79
39555;BME280;25231;48.746;9.234;2023-03-15T08:57:30;96784.00;;;5.42;81.71
39555;BME280;25231;48.746;9.234;2023-03-15T08:59:58;96784.16;;;5.28;79.14
39555;BME280;25231;48.746;9.234;2023-03-15T09:02:27;96793.59;;;5.42;76.37
39555;BME280;25231;48.746;9.234;2023-03-15T09:04:53;96799.81;;;5.48;76.88
39555;BME280;25231;48.746;9.234;2023-03-15T09:07:18;96802.84;;;5.51;76.20
39555;BME280;25231;48.746;9.234;2023-03-15T09:09:44;96806.41;;;5.43;76.80
39555;BME280;25231;48.746;9.234;2023-03-15T09:12:16;96813.88;;;5.60;74.03
39555;BME280;25231;48.746;9.234;2023-03-15T09:14:42;96808.59;;;5.47;73.04
39555;BME280;25231;48.746;9.234;2023-03-15T09:17:08;96807.22;;;5.44;73.73
39555;BME280;25231;48.746;9.234;2023-03-15T09:19:34;96825.59;;;5.42;73.48
39555;BME280;25231;48.746;9.234;2023-03-15T09:22:00;96818.00;;;5.48;73.78
39555;BME280;25231;48.746;9.234;2023-03-15T09:24:26;96822.06;;;5.63;73.67
39555;BME280;25231;48.746;9.234;2023-03-15T09:26:52;96815.84;;;5.51;72.95
39555;BME280;25231;48.746;9.234;2023-03-15T09:29:17;96817.88;;;5.69;71.41
39555;BME280;25231;48.746;9.234;2023-03-15T09:31:43;96825.72;;;5.75;72.51
39555;BME280;25231;48.746;9.234;2023-03-15T09:34:08;96819.03;;;6.14;72.11
39555;BME280;25231;48.746;9.234;2023-03-15T09:36:34;96821.06;;;6.12;68.86
39555;BME280;25231;48.746;9.234;2023-03-15T09:39:00;96831.25;;;6.13;66.67
39555;BME280;25231;48.746;9.234;2023-03-15T09:41:46;96822.84;;;6.24;67.42
39555;BME280;25231;48.746;9.234;2023-03-15T09:50:05;96830.41;;;5.93;66.52
39555;BME280;25231;48.746;9.234;2023-03-15T09:55:05;96828.84;;;6.05;66.62
39555;BME280;25231;48.746;9.234;2023-03-15T09:57:59;96836.38;;;5.87;67.13
39555;BME280;25231;48.746;9.234;2023-03-15T10:00:33;96839.72;;;5.68;67.81
39555;BME280;25231;48.746;9.234;2023-03-15T10:03:00;96835.47;;;5.60;67.65
39555;BME280;25231;48.746;9.234;2023-03-15T10:05:39;96830.91;;;5.75;68.09
39555;BME280;25231;48.746;9.234;2023-03-15T10:08:13;96828.53;;;5.80;68.72
39555;BME280;25231;48.746;9.234;2023-03-15T10:10:55;96832.00;;;5.88;68.37
39555;BME280;25231;48.746;9.234;2023-03-15T10:21:44;96826.03;;;6.13;68.42
39555;BME280;25231;48.746;9.234;2023-03-15T10:24:29;96820.88;;;6.33;66.87
39555;BME280;25231;48.746;9.234;2023-03-15T10:26:58;96830.31;;;6.54;66.93
39555;BME280;25231;48.746;9.234;2023-03-15T10:29:26;96834.69;;;6.47;67.53
39555;BME280;25231;48.746;9.234;2023-03-15T10:31:53;96827.72;;;6.74;66.64
39555;BME280;25231;48.746;9.234;2023-03-15T10:34:19;96817.09;;;6.55;65.86
39555;BME280;25231;48.746;9.234;2023-03-15T10:36:50;96822.50;;;6.54;64.84
39555;BME280;25231;48.746;9.234;2023-03-15T10:39:20;96823.69;;;6.58;64.80
39555;BME280;25231;48.746;9.234;2023-03-15T10:41:48;96809.06;;;6.31;64.46
39555;BME280;25231;48.746;9.234;2023-03-15T10:44:23;96823.03;;;6.03;64.83
39555;BME280;25231;48.746;9.234;2023-03-15T10:47:02;96820.88;;;6.26;62.79
39555;BME280;25231;48.746;9.234;2023-03-15T10:49:38;96816.28;;;6.35;63.31
39555;BME280;25231;48.746;9.234;2023-03-15T10:52:39;96818.31;;;6.46;63.00
39555;BME280;25231;48.746;9.234;2023-03-15T10:55:14;96824.88;;;6.42;62.87
39555;BME280;25231;48.746;9.234;2023-03-15T10:58:24;96817.25;;;7.06;61.41
39555;BME280;25231;48.746;9.234;2023-03-15T11:01:02;96820.59;;;7.33;60.97
39555;BME280;25231;48.746;9.234;2023-03-15T11:03:28;96817.09;;;7.59;61.02
39555;BME280;25231;48.746;9.234;2023-03-15T11:06:01;96815.72;;;7.57;58.89
39555;BME280;25231;48.746;9.234;2023-03-15T11:11:04;96816.09;;;7.60;58.15
39555;BME280;25231;48.746;9.234;2023-03-15T11:13:32;96814.00;;;7.24;58.96
39555;BME280;25231;48.746;9.234;2023-03-15T11:16:19;96810.06;;;7.02;59.84
39555;BME280;25231;48.746;9.234;2023-03-15T11:18:58;96818.06;;;6.94;60.32
39555;BME280;25231;48.746;9.234;2023-03-15T11:21:29;96813.28;;;6.58;61.07
39555;BME280;25231;48.746;9.234;2023-03-15T11:24:00;96810.25;;;6.41;62.05
39555;BME280;25231;48.746;9.234;2023-03-15T11:26:51;96803.06;;;6.37;63.15
39555;BME280;25231;48.746;9.234;2023-03-15T11:29:24;96807.66;;;6.48;62.35
39555;BME280;25231;48.746;9.234;2023-03-15T11:31:51;96801.66;;;6.67;61.54
39555;BME280;25231;48.746;9.234;2023-03-15T11:36:54;96801.88;;;6.72;60.45
39555;BME280;25231;48.746;9.234;2023-03-15T11:39:42;96809.88;;;6.84;60.34
39555;BME280;25231;48.746;9.234;2023-03-15T11:42:19;96817.25;;;7.00;60.47
39555;BME280;25231;48.746;9.234;2023-03-15T11:44:52;96809.84;;;6.97;59.94
39555;BME280;25231;48.746;9.234;2023-03-15T11:49:53;96804.25;;;6.87;58.68
39555;BME280;25231;48.746;9.234;2023-03-15T11:52:25;96808.88;;;6.85;58.47
39555;BME280;25231;48.746;9.234;2023-03-15T11:54:58;96803.25;;;6.94;58.34
39555;BME280;25231;48.746;9.234;2023-03-15T11:59:54;96798.63;;;6.96;56.68
39555;BME280;25231;48.746;9.234;2023-03-15T12:04:53;96806.88;;;6.74;54.70
39555;BME280;25231;48.746;9.234;2023-03-15T12:10:17;96805.69;;;6.63;54.18
39555;BME280;25231;48.746;9.234;2023-03-15T12:12:47;96810.66;;;6.91;54.33
39555;BME280;25231;48.746;9.234;2023-03-15T12:22:49;96809.63;;;6.92;54.45
39555;BME280;25231;48.746;9.234;2023-03-15T12:27:49;96813.84;;;7.06;52.59
39555;BME280;25231;48.746;9.234;2023-03-15T12:30:44;96801.44;;;7.01;53.21
39555;BME280;25231;48.746;9.234;2023-03-15T12:33:15;96805.84;;;6.88;52.98
39555;BME280;25231;48.746;9.234;2023-03-15T12:35:41;96797.88;;;6.63;53.40
39555;BME280;25231;48.746;9.234;2023-03-15T12:38:31;96799.25;;;6.33;54.86
39555;BME280;25231;48.746;9.234;2023-03-15T12:40:59;96811.44;;;6.98;53.34
39555;BME280;25231;48.746;9.234;2023-03-15T12:44:00;96813.56;;;7.34;52.47
39555;BME280;25231;48.746;9.234;2023-03-15T12:51:57;96793.88;;;7.44;52.18
39555;BME280;25231;48.746;9.234;2023-03-15T12:54:25;96797.66;;;7.48;52.14
39555;BME280;25231;48.746;9.234;2023-03-15T12:57:03;96807.56;;;7.27;53.08
39555;BME280;25231;48.746;9.234;2023-03-15T12:59:55;96811.06;;;6.88;54.55
39555;BME280;25231;48.746;9.234;2023-03-15T13:02:33;96806.47;;;6.37;54.96
39555;BME280;25231;48.746;9.234;2023-03-15T13:05:03;96810.25;;;6.21;56.10
39555;BME280;25231;48.746;9.234;2023-03-15T13:13:00;96824.28;;;6.60;58.32
39555;BME280;25231;48.746;9.234;2023-03-15T13:15:57;96826.06;;;6.07;61.03
39555;BME280;25231;48.746;9.234;2023-03-15T13:18:28;96830.00;;;5.90;66.80
39555;BME280;25231;48.746;9.234;2023-03-15T13:21:15;96828.44;;;5.54;73.84
39555;BME280;25231;48.746;9.234;2023-03-15T13:23:50;96810.66;;;5.51;76.85
39555;BME280;25231;48.746;9.234;2023-03-15T13:31:31;96814.84;;;5.59;79.19
39555;BME280;25231;48.746;9.234;2023-03-15T13:34:19;96819.31;;;5.30;80.75
39555;BME280;25231;48.746;9.234;2023-03-15T13:36:54;96818.06;;;5.61;81.04
39555;BME280;25231;48.746;9.234;2023-03-15T13:39:38;96818.91;;;5.74;81.55
39555;BME280;25231;48.746;9.234;2023-03-15T13:42:18;96814.84;;;6.13;79.40
39555;BME280;25231;48.746;9.234;2023-03-15T13:44:44;96816.88;;;6.17;78.47
39555;BME280;25231;48.746;9.234;2023-03-15T13:47:18;96819.44;;;6.04;78.27
39555;BME280;25231;48.746;9.234;2023-03-15T13:49:46;96818.09;;;5.67;80.95
39555;BME280;25231;48.746;9.234;2023-03-15T13:52:11;96812.13;;;5.80;80.57
39555;BME280;25231;48.746;9.234;2023-03-15T13:54:39;96821.50;;;5.74;81.66
39555;BME280;25231;48.746;9.234;2023-03-15T13:57:07;96823.19;;;5.48;82.72
39555;BME280;25231;48.746;9.234;2023-03-15T13:59:40;96826.53;;;5.28;84.46
39555;BME280;25231;48.746;9.234;2023-03-15T14:02:16;96831.78;;;4.79;87.38
39555;BME280;25231;48.746;9.234;2023-03-15T14:04:48;96825.00;;;4.50;87.85
39555;BME280;25231;48.746;9.234;2023-03-15T14:07:26;96834.94;;;4.47;89.20
39555;BME280;25231;48.746;9.234;2023-03-15T14:10:33;96834.88;;;4.62;91.14
39555;BME280;25231;48.746;9.234;2023-03-15T14:15:56;96835.38;;;4.50;100.00
39555;BME280;25231;48.746;9.234;2023-03-15T14:18:24;96836.97;;;4.79;100.00
39555;BME280;25231;48.746;9.234;2023-03-15T14:21:02;96829.47;;;4.84;98.21
39555;BME280;25231;48.746;9.234;2023-03-15T14:23:29;96826.66;;;5.20;99.20